Tombarra — MPRD6 — position and weather

sailwx.info

Track history (hours):
 
Tides and Currents Weather Stations Pressure Air Temp Water Temp Dewpoint Dewpoint Depression Visibility Wind Speed Wind Dir Waves Ship Positions

Tombarra

Last reported at 2015-Sep-02 11:34 UTC. Time now 2015-Sep-03 12:58 UTC.
Position S 25°36' E 154°16'.

Length 199 m; draft 8.3 m.

Type: Cargo ship. MMSI: 232971000.

Date/timePositionNaut miles runAvg speedWind from/ knotsBaromVisibWave heightAir tempDewpointWater temp
2015-Sep-02 11:34S 25°36' E 154°16'1615.8
2015-Sep-02 10:33S 25°51' E 154°15'1815.2
2015-Sep-02 09:23S 26°09' E 154°14'1315.2
2015-Sep-02 08:34S 26°22' E 154°12'1515.0
2015-Sep-02 07:34S 26°37' E 154°11'3815.2
2015-Sep-02 05:04S 27°14' E 154°08'714.4
2015-Sep-02 04:33S 27°22' E 154°07'5516.9
2015-Sep-02 01:20S 28°16' E 154°02'26215.6
2015-Sep-01 08:33S 32°31' E 152°54'1515.1
2015-Sep-01 07:33S 32°45' E 152°46'1615.8
2015-Sep-01 06:33S 32°58' E 152°37'1515.4
2015-Sep-01 05:34S 33°09' E 152°24'264 6.4
2015-Aug-30 12:33S 37°12' E 150°17'1515.5
2015-Aug-30 11:33S 37°27' E 150°11'1616.2
2015-Aug-30 10:33S 37°40' E 149°60'1717.1
2015-Aug-30 09:33S 37°53' E 149°45'4916.3
2015-Aug-30 06:34S 38°24' E 148°57'7416.9
2015-Aug-30 02:12S 38°58' E 147°34'1116.4
2015-Aug-30 01:34S 39°02' E 147°21'1616.3
2015-Aug-30 00:33S 39°07' E 147°01'1616.3
2015-Aug-29 23:34S 39°14' E 146°42'1616.2
2015-Aug-29 22:33S 39°17' E 146°21'1616.2
2015-Aug-29 21:33S 39°12' E 146°01'1717.2
2015-Aug-29 20:33S 39°02' E 145°43'131 4.4
2015-Aug-28 14:29S 38°58' E 142°54'1616.5
2015-Aug-28 13:32S 38°58' E 142°34'1717.2
2015-Aug-28 12:33S 38°58' E 142°12'1616.1
2015-Aug-28 11:32S 38°58' E 141°51'  
Track history (hours):
 
Tides and Currents Weather Stations Pressure Air Temp Water Temp Dewpoint Dewpoint Depression Visibility Wind Speed Wind Dir Waves Ship Positions

Tombarra

Last reported at 2015-Sep-02 11:34 UTC. Time now 2015-Sep-03 12:58 UTC.
Position S 25°36' E 154°16'.

Length 199 m; draft 8.3 m.

Type: Cargo ship. MMSI: 232971000.

Date/timePositionNaut miles runAvg speedWind from/ knotsBaromVisibWave heightAir tempDewpointWater temp
2015-Sep-02 11:34S 25°36' E 154°16'1615.8
2015-Sep-02 10:33S 25°51' E 154°15'1815.2
2015-Sep-02 09:23S 26°09' E 154°14'1315.2
2015-Sep-02 08:34S 26°22' E 154°12'1515.0
2015-Sep-02 07:34S 26°37' E 154°11'3815.2
2015-Sep-02 05:04S 27°14' E 154°08'714.4
2015-Sep-02 04:33S 27°22' E 154°07'5516.9
2015-Sep-02 01:20S 28°16' E 154°02'26215.6
2015-Sep-01 08:33S 32°31' E 152°54'1515.1
2015-Sep-01 07:33S 32°45' E 152°46'1615.8
2015-Sep-01 06:33S 32°58' E 152°37'1515.4
2015-Sep-01 05:34S 33°09' E 152°24'264 6.4
2015-Aug-30 12:33S 37°12' E 150°17'1515.5
2015-Aug-30 11:33S 37°27' E 150°11'1616.2
2015-Aug-30 10:33S 37°40' E 149°60'1717.1
2015-Aug-30 09:33S 37°53' E 149°45'4916.3
2015-Aug-30 06:34S 38°24' E 148°57'7416.9
2015-Aug-30 02:12S 38°58' E 147°34'1116.4
2015-Aug-30 01:34S 39°02' E 147°21'1616.3
2015-Aug-30 00:33S 39°07' E 147°01'1616.3
2015-Aug-29 23:34S 39°14' E 146°42'1616.2
2015-Aug-29 22:33S 39°17' E 146°21'1616.2
2015-Aug-29 21:33S 39°12' E 146°01'1717.2
2015-Aug-29 20:33S 39°02' E 145°43'131 4.4
2015-Aug-28 14:29S 38°58' E 142°54'1616.5
2015-Aug-28 13:32S 38°58' E 142°34'1717.2
2015-Aug-28 12:33S 38°58' E 142°12'1616.1
2015-Aug-28 11:32S 38°58' E 141°51'  

Dump ship's entire track history